sensor_id;sensor_type;location;lat;lon;timestamp;pressure;altitude;pressure_sealevel;temperature;humidity
6194;BME280;3130;41.564;23.280;2023-08-20T00:02:11;98570.25;;;23.76;44.03
6194;BME280;3130;41.564;23.280;2023-08-20T00:04:39;98690.16;;;24.47;44.34
6194;BME280;3130;41.564;23.280;2023-08-20T00:07:07;98559.78;;;23.76;43.67
6194;BME280;3130;41.564;23.280;2023-08-20T00:09:34;98702.84;;;24.64;43.57
6194;BME280;3130;41.564;23.280;2023-08-20T00:12:02;98677.28;;;24.37;43.75
6194;BME280;3130;41.564;23.280;2023-08-20T00:14:52;98707.84;;;24.59;43.74
6194;BME280;3130;41.564;23.280;2023-08-20T00:17:22;98646.97;;;24.14;44.15
6194;BME280;3130;41.564;23.280;2023-08-20T00:19:53;98693.28;;;24.42;44.23
6194;BME280;3130;41.564;23.280;2023-08-20T00:22:21;98686.88;;;24.30;44.73
6194;BME280;3130;41.564;23.280;2023-08-20T00:24:50;98689.06;;;24.27;44.66
6194;BME280;3130;41.564;23.280;2023-08-20T00:27:18;98688.69;;;24.30;44.79
6194;BME280;3130;41.564;23.280;2023-08-20T00:29:45;98682.91;;;24.34;45.02
6194;BME280;3130;41.564;23.280;2023-08-20T00:32:12;98689.69;;;24.29;45.17
6194;BME280;3130;41.564;23.280;2023-08-20T00:34:40;98600.44;;;23.72;45.11
6194;BME280;3130;41.564;23.280;2023-08-20T00:37:07;98677.03;;;24.18;45.25
6194;BME280;3130;41.564;23.280;2023-08-20T00:39:34;98656.81;;;24.12;45.15
6194;BME280;3130;41.564;23.280;2023-08-20T00:42:02;98684.25;;;24.30;44.91
6194;BME280;3130;41.564;23.280;2023-08-20T00:44:29;98654.19;;;24.12;45.10
6194;BME280;3130;41.564;23.280;2023-08-20T00:46:57;98672.78;;;24.31;45.49
6194;BME280;3130;41.564;23.280;2023-08-20T00:49:25;98674.94;;;24.42;45.70
6194;BME280;3130;41.564;23.280;2023-08-20T00:51:54;98596.84;;;24.02;46.00
6194;BME280;3130;41.564;23.280;2023-08-20T00:54:22;98673.28;;;24.55;45.89
6194;BME280;3130;41.564;23.280;2023-08-20T00:56:50;98642.75;;;24.48;45.86
6194;BME280;3130;41.564;23.280;2023-08-20T00:59:17;98668.94;;;24.62;45.76
6194;BME280;3130;41.564;23.280;2023-08-20T01:01:45;98663.97;;;24.67;45.59
6194;BME280;3130;41.564;23.280;2023-08-20T01:04:12;98670.19;;;24.66;45.26
6194;BME280;3130;41.564;23.280;2023-08-20T01:06:46;98658.13;;;24.51;45.54
6194;BME280;3130;41.564;23.280;2023-08-20T01:09:23;98673.50;;;24.54;45.33
6194;BME280;3130;41.564;23.280;2023-08-20T01:11:59;98666.59;;;24.39;45.29
6194;BME280;3130;41.564;23.280;2023-08-20T01:14:27;98673.22;;;24.35;45.61
6194;BME280;3130;41.564;23.280;2023-08-20T01:16:54;98560.97;;;23.59;46.33
6194;BME280;3130;41.564;23.280;2023-08-20T01:19:22;98667.03;;;24.21;46.41
6194;BME280;3130;41.564;23.280;2023-08-20T01:22:00;98667.31;;;24.12;46.67
6194;BME280;3130;41.564;23.280;2023-08-20T01:24:46;98660.31;;;24.19;46.72
6194;BME280;3130;41.564;23.280;2023-08-20T01:27:28;98667.16;;;24.34;46.48
6194;BME280;3130;41.564;23.280;2023-08-20T01:30:02;98674.22;;;24.34;46.81
6194;BME280;3130;41.564;23.280;2023-08-20T01:32:30;98654.41;;;23.96;46.29
6194;BME280;3130;41.564;23.280;2023-08-20T01:34:57;98611.47;;;23.39;47.04
6194;BME280;3130;41.564;23.280;2023-08-20T01:37:24;98661.63;;;23.79;46.59
6194;BME280;3130;41.564;23.280;2023-08-20T01:39:51;98650.19;;;23.58;46.58
6194;BME280;3130;41.564;23.280;2023-08-20T01:42:18;98670.16;;;23.73;46.72
6194;BME280;3130;41.564;23.280;2023-08-20T01:44:45;98541.50;;;22.82;46.57
6194;BME280;3130;41.564;23.280;2023-08-20T01:47:14;98643.84;;;23.38;46.32
6194;BME280;3130;41.564;23.280;2023-08-20T01:49:41;98654.88;;;23.48;45.71
6194;BME280;3130;41.564;23.280;2023-08-20T01:52:08;98674.59;;;23.73;45.25
6194;BME280;3130;41.564;23.280;2023-08-20T01:54:35;98670.78;;;23.75;44.38
6194;BME280;3130;41.564;23.280;2023-08-20T01:57:02;98662.34;;;23.88;44.65
6194;BME280;3130;41.564;23.280;2023-08-20T01:59:29;98593.94;;;23.40;44.35
6194;BME280;3130;41.564;23.280;2023-08-20T02:01:56;98666.31;;;23.47;45.14
6194;BME280;3130;41.564;23.280;2023-08-20T02:04:25;98679.50;;;23.39;45.45
6194;BME280;3130;41.564;23.280;2023-08-20T02:06:52;98624.06;;;22.99;45.37
6194;BME280;3130;41.564;23.280;2023-08-20T02:09:19;98680.50;;;23.38;45.74
6194;BME280;3130;41.564;23.280;2023-08-20T02:11:46;98517.38;;;22.57;45.15
6194;BME280;3130;41.564;23.280;2023-08-20T02:14:13;98671.13;;;23.43;45.75
6194;BME280;3130;41.564;23.280;2023-08-20T02:16:40;98598.34;;;22.65;46.34
6194;BME280;3130;41.564;23.280;2023-08-20T02:19:07;98569.25;;;22.16;47.19
6194;BME280;3130;41.564;23.280;2023-08-20T02:21:36;98625.91;;;22.45;47.29
6194;BME280;3130;41.564;23.280;2023-08-20T02:24:04;98664.69;;;22.64;47.59
6194;BME280;3130;41.564;23.280;2023-08-20T02:26:31;98682.00;;;22.65;48.58
6194;BME280;3130;41.564;23.280;2023-08-20T02:28:58;98580.38;;;22.10;48.05
6194;BME280;3130;41.564;23.280;2023-08-20T02:31:25;98673.06;;;22.60;48.22
6194;BME280;3130;41.564;23.280;2023-08-20T02:33:53;98689.75;;;22.51;48.71
6194;BME280;3130;41.564;23.280;2023-08-20T02:36:20;98695.69;;;22.45;48.83
6194;BME280;3130;41.564;23.280;2023-08-20T02:38:50;98696.19;;;22.40;49.03
6194;BME280;3130;41.564;23.280;2023-08-20T02:41:17;98699.66;;;22.25;48.98
6194;BME280;3130;41.564;23.280;2023-08-20T02:43:44;98609.78;;;21.65;49.08
6194;BME280;3130;41.564;23.280;2023-08-20T02:46:11;98706.84;;;22.23;49.17
6194;BME280;3130;41.564;23.280;2023-08-20T02:48:38;98701.94;;;22.28;49.29
6194;BME280;3130;41.564;23.280;2023-08-20T02:51:05;98659.97;;;21.91;49.70
6194;BME280;3130;41.564;23.280;2023-08-20T02:53:32;98713.41;;;22.19;49.45
6194;BME280;3130;41.564;23.280;2023-08-20T02:56:01;98589.09;;;21.48;49.76
6194;BME280;3130;41.564;23.280;2023-08-20T02:58:29;98641.16;;;22.04;49.41
6194;BME280;3130;41.564;23.280;2023-08-20T03:00:56;98700.78;;;22.31;49.81
6194;BME280;3130;41.564;23.280;2023-08-20T03:03:23;98701.97;;;22.20;50.09
6194;BME280;3130;41.564;23.280;2023-08-20T03:05:50;98712.75;;;22.17;50.69
6194;BME280;3130;41.564;23.280;2023-08-20T03:08:17;98709.66;;;22.14;50.97
6194;BME280;3130;41.564;23.280;2023-08-20T03:10:44;98722.91;;;22.12;51.01
6194;BME280;3130;41.564;23.280;2023-08-20T03:13:13;98711.19;;;22.00;51.47
6194;BME280;3130;41.564;23.280;2023-08-20T03:15:41;98611.66;;;21.33;51.75
6194;BME280;3130;41.564;23.280;2023-08-20T03:18:08;98721.47;;;22.02;51.75
6194;BME280;3130;41.564;23.280;2023-08-20T03:20:35;98715.91;;;22.05;52.11
6194;BME280;3130;41.564;23.280;2023-08-20T03:23:02;98692.16;;;21.84;51.90
6194;BME280;3130;41.564;23.280;2023-08-20T03:25:29;98728.66;;;22.00;52.54
6194;BME280;3130;41.564;23.280;2023-08-20T03:27:56;98731.59;;;21.97;52.99
6194;BME280;3130;41.564;23.280;2023-08-20T03:30:24;98723.28;;;21.93;53.18
6194;BME280;3130;41.564;23.280;2023-08-20T03:32:51;98717.41;;;21.91;53.65
6194;BME280;3130;41.564;23.280;2023-08-20T03:35:18;98619.31;;;21.27;53.28
6194;BME280;3130;41.564;23.280;2023-08-20T03:37:45;98617.03;;;21.24;53.02
6194;BME280;3130;41.564;23.280;2023-08-20T03:40:13;98636.44;;;21.21;53.09
6194;BME280;3130;41.564;23.280;2023-08-20T03:42:40;98709.31;;;21.70;53.28
6194;BME280;3130;41.564;23.280;2023-08-20T03:45:07;98532.66;;;20.69;53.85
6194;BME280;3130;41.564;23.280;2023-08-20T03:47:36;98716.78;;;21.81;54.58
6194;BME280;3130;41.564;23.280;2023-08-20T03:50:03;98537.38;;;20.73;55.45
6194;BME280;3130;41.564;23.280;2023-08-20T03:52:30;98563.44;;;20.89;55.98
6194;BME280;3130;41.564;23.280;2023-08-20T03:54:58;98714.44;;;22.02;56.00
6194;BME280;3130;41.564;23.280;2023-08-20T03:57:25;98591.09;;;21.22;56.16
6194;BME280;3130;41.564;23.280;2023-08-20T03:59:52;98696.56;;;21.75;55.83
6194;BME280;3130;41.564;23.280;2023-08-20T04:02:19;98713.03;;;21.76;55.92
6194;BME280;3130;41.564;23.280;2023-08-20T04:04:47;98725.28;;;21.75;56.48
6194;BME280;3130;41.564;23.280;2023-08-20T04:07:15;98626.16;;;21.12;56.39
6194;BME280;3130;41.564;23.280;2023-08-20T04:09:42;98612.81;;;20.99;56.84
6194;BME280;3130;41.564;23.280;2023-08-20T04:12:09;98740.63;;;21.62;57.30
6194;BME280;3130;41.564;23.280;2023-08-20T04:14:36;98743.88;;;21.64;57.44
6194;BME280;3130;41.564;23.280;2023-08-20T04:17:03;98748.78;;;21.67;57.26
6194;BME280;3130;41.564;23.280;2023-08-20T04:19:30;98750.06;;;21.79;56.89
6194;BME280;3130;41.564;23.280;2023-08-20T04:21:59;98635.31;;;21.24;57.13
6194;BME280;3130;41.564;23.280;2023-08-20T04:24:26;98713.69;;;21.70;57.61
6194;BME280;3130;41.564;23.280;2023-08-20T04:26:53;98674.91;;;21.51;57.91
6194;BME280;3130;41.564;23.280;2023-08-20T04:29:20;98748.25;;;22.04;58.19
6194;BME280;3130;41.564;23.280;2023-08-20T04:31:47;98746.44;;;22.04;58.53
6194;BME280;3130;41.564;23.280;2023-08-20T04:34:14;98747.41;;;22.11;58.64
6194;BME280;3130;41.564;23.280;2023-08-20T04:36:41;98746.38;;;22.28;58.69
6194;BME280;3130;41.564;23.280;2023-08-20T04:39:10;98589.81;;;21.34;58.54
6194;BME280;3130;41.564;23.280;2023-08-20T04:41:37;98745.56;;;22.36;58.56
6194;BME280;3130;41.564;23.280;2023-08-20T04:44:04;98751.06;;;22.40;58.52
6194;BME280;3130;41.564;23.280;2023-08-20T04:46:31;98754.03;;;22.38;58.78
6194;BME280;3130;41.564;23.280;2023-08-20T04:48:58;98607.50;;;21.54;59.40
6194;BME280;3130;41.564;23.280;2023-08-20T04:51:25;98746.34;;;22.44;58.91
6194;BME280;3130;41.564;23.280;2023-08-20T04:53:52;98751.06;;;22.40;59.31
6194;BME280;3130;41.564;23.280;2023-08-20T04:56:21;98678.91;;;21.93;59.72
6194;BME280;3130;41.564;23.280;2023-08-20T04:58:48;98734.44;;;22.26;59.64
6194;BME280;3130;41.564;23.280;2023-08-20T05:01:15;98735.47;;;22.17;60.79
6194;BME280;3130;41.564;23.280;2023-08-20T05:03:42;98753.06;;;22.39;60.17
6194;BME280;3130;41.564;23.280;2023-08-20T05:06:09;98738.19;;;22.31;60.08
6194;BME280;3130;41.564;23.280;2023-08-20T05:08:36;98750.72;;;22.43;60.50
6194;BME280;3130;41.564;23.280;2023-08-20T05:11:03;98691.50;;;22.20;59.78
6194;BME280;3130;41.564;23.280;2023-08-20T05:13:31;98750.81;;;22.66;59.29
6194;BME280;3130;41.564;23.280;2023-08-20T05:15:58;98752.69;;;22.80;59.47
6194;BME280;3130;41.564;23.280;2023-08-20T05:18:25;98755.56;;;22.93;59.04
6194;BME280;3130;41.564;23.280;2023-08-20T05:20:52;98762.19;;;23.03;59.10
6194;BME280;3130;41.564;23.280;2023-08-20T05:23:19;98740.09;;;23.14;58.53
6194;BME280;3130;41.564;23.280;2023-08-20T05:25:46;98761.00;;;23.36;58.15
6194;BME280;3130;41.564;23.280;2023-08-20T05:28:13;98762.78;;;23.58;58.38
6194;BME280;3130;41.564;23.280;2023-08-20T05:30:42;98759.94;;;23.67;56.78
6194;BME280;3130;41.564;23.280;2023-08-20T05:33:09;98773.44;;;23.93;56.80
6194;BME280;3130;41.564;23.280;2023-08-20T05:35:36;98755.09;;;23.93;56.19
6194;BME280;3130;41.564;23.280;2023-08-20T05:38:03;98734.63;;;23.97;55.44
6194;BME280;3130;41.564;23.280;2023-08-20T05:40:30;98776.44;;;24.34;55.48
6194;BME280;3130;41.564;23.280;2023-08-20T05:42:57;98775.31;;;24.51;54.29
6194;BME280;3130;41.564;23.280;2023-08-20T05:45:24;98785.63;;;24.66;54.93
6194;BME280;3130;41.564;23.280;2023-08-20T05:47:53;98774.19;;;24.74;54.21
6194;BME280;3130;41.564;23.280;2023-08-20T05:50:20;98779.31;;;24.96;53.20
6194;BME280;3130;41.564;23.280;2023-08-20T05:52:47;98783.25;;;25.07;52.73
6194;BME280;3130;41.564;23.280;2023-08-20T05:55:14;98787.38;;;25.30;52.29
6194;BME280;3130;41.564;23.280;2023-08-20T05:57:42;98786.06;;;25.41;50.37
6194;BME280;3130;41.564;23.280;2023-08-20T06:00:10;98775.28;;;25.56;50.20
6194;BME280;3130;41.564;23.280;2023-08-20T06:02:37;98782.16;;;25.57;50.56
6194;BME280;3130;41.564;23.280;2023-08-20T06:05:06;98780.22;;;25.66;49.92
6194;BME280;3130;41.564;23.280;2023-08-20T06:07:34;98783.66;;;25.87;49.56
6194;BME280;3130;41.564;23.280;2023-08-20T06:10:01;98778.84;;;25.91;49.49
6194;BME280;3130;41.564;23.280;2023-08-20T06:12:28;98777.00;;;25.91;49.94
6194;BME280;3130;41.564;23.280;2023-08-20T06:14:55;98768.59;;;26.02;48.51
6194;BME280;3130;41.564;23.280;2023-08-20T06:17:22;98776.78;;;26.20;48.40
6194;BME280;3130;41.564;23.280;2023-08-20T06:19:49;98742.56;;;26.14;47.17
6194;BME280;3130;41.564;23.280;2023-08-20T06:22:17;98718.53;;;26.17;46.04
6194;BME280;3130;41.564;23.280;2023-08-20T06:24:44;98777.69;;;26.74;46.21
6194;BME280;3130;41.564;23.280;2023-08-20T06:27:11;98777.56;;;26.88;45.64
6194;BME280;3130;41.564;23.280;2023-08-20T06:29:39;98721.81;;;26.65;44.81
6194;BME280;3130;41.564;23.280;2023-08-20T06:32:06;98779.72;;;27.25;44.50
6194;BME280;3130;41.564;23.280;2023-08-20T06:34:33;98775.91;;;27.41;43.92
6194;BME280;3130;41.564;23.280;2023-08-20T06:37:02;98771.03;;;27.57;43.58
6194;BME280;3130;41.564;23.280;2023-08-20T06:39:30;98765.38;;;27.79;44.12
6194;BME280;3130;41.564;23.280;2023-08-20T06:41:57;98784.03;;;28.04;43.43
6194;BME280;3130;41.564;23.280;2023-08-20T06:44:24;98775.06;;;28.11;43.52
6194;BME280;3130;41.564;23.280;2023-08-20T06:46:51;98778.72;;;28.23;42.24
6194;BME280;3130;41.564;23.280;2023-08-20T06:49:18;98783.19;;;28.36;42.04
6194;BME280;3130;41.564;23.280;2023-08-20T06:51:45;98777.81;;;28.62;41.98
6194;BME280;3130;41.564;23.280;2023-08-20T06:54:12;98776.75;;;28.75;41.35
6194;BME280;3130;41.564;23.280;2023-08-20T06:56:40;98783.03;;;28.81;42.09
6194;BME280;3130;41.564;23.280;2023-08-20T06:59:08;98775.59;;;29.09;41.17
6194;BME280;3130;41.564;23.280;2023-08-20T07:01:35;98779.13;;;29.27;40.66
6194;BME280;3130;41.564;23.280;2023-08-20T07:04:03;98769.78;;;29.31;39.54
6194;BME280;3130;41.564;23.280;2023-08-20T07:06:30;98768.25;;;29.17;40.61
6194;BME280;3130;41.564;23.280;2023-08-20T07:08:57;98768.59;;;29.58;39.84
6194;BME280;3130;41.564;23.280;2023-08-20T07:11:24;98734.44;;;29.57;40.03
6194;BME280;3130;41.564;23.280;2023-08-20T07:13:52;98765.53;;;30.10;39.65
6194;BME280;3130;41.564;23.280;2023-08-20T07:16:19;98764.13;;;30.43;38.22
6194;BME280;3130;41.564;23.280;2023-08-20T07:18:46;98748.03;;;30.45;36.59
6194;BME280;3130;41.564;23.280;2023-08-20T07:21:13;98759.53;;;30.57;35.95
6194;BME280;3130;41.564;23.280;2023-08-20T07:23:40;98742.25;;;30.83;35.74
6194;BME280;3130;41.564;23.280;2023-08-20T07:26:08;98750.75;;;31.03;35.33
6194;BME280;3130;41.564;23.280;2023-08-20T07:28:37;98748.56;;;31.18;34.82
6194;BME280;3130;41.564;23.280;2023-08-20T07:31:25;98749.78;;;31.57;34.29
6194;BME280;3130;41.564;23.280;2023-08-20T07:33:53;98751.44;;;31.69;33.95
6194;BME280;3130;41.564;23.280;2023-08-20T07:36:22;98754.69;;;31.71;33.88
6194;BME280;3130;41.564;23.280;2023-08-20T07:38:49;98723.19;;;31.86;33.65
6194;BME280;3130;41.564;23.280;2023-08-20T07:41:17;98673.13;;;31.78;32.84
6194;BME280;3130;41.564;23.280;2023-08-20T07:43:45;98745.44;;;32.31;32.11
6194;BME280;3130;41.564;23.280;2023-08-20T07:46:13;98742.13;;;32.75;31.36
6194;BME280;3130;41.564;23.280;2023-08-20T07:48:42;98741.56;;;33.00;30.88
6194;BME280;3130;41.564;23.280;2023-08-20T07:51:09;98744.97;;;33.12;31.30
6194;BME280;3130;41.564;23.280;2023-08-20T07:53:36;98663.66;;;32.44;30.30
6194;BME280;3130;41.564;23.280;2023-08-20T07:56:04;98733.47;;;32.96;30.90
6194;BME280;3130;41.564;23.280;2023-08-20T07:58:31;98745.16;;;32.95;31.00
6194;BME280;3130;41.564;23.280;2023-08-20T08:00:58;98736.06;;;32.91;30.22
6194;BME280;3130;41.564;23.280;2023-08-20T08:03:26;98728.81;;;33.02;30.48
6194;BME280;3130;41.564;23.280;2023-08-20T08:05:55;98684.16;;;32.88;30.77
6194;BME280;3130;41.564;23.280;2023-08-20T08:08:23;98676.28;;;32.77;30.19
6194;BME280;3130;41.564;23.280;2023-08-20T08:10:50;98725.03;;;32.98;30.39
6194;BME280;3130;41.564;23.280;2023-08-20T08:13:19;98665.06;;;32.75;29.68
6194;BME280;3130;41.564;23.280;2023-08-20T08:15:47;98730.75;;;33.18;28.77
6194;BME280;3130;41.564;23.280;2023-08-20T08:18:14;98610.72;;;32.54;28.87
6194;BME280;3130;41.564;23.280;2023-08-20T08:20:41;98729.00;;;33.40;28.55
6194;BME280;3130;41.564;23.280;2023-08-20T08:23:11;98725.78;;;33.38;28.69
6194;BME280;3130;41.564;23.280;2023-08-20T08:25:38;98722.47;;;33.48;28.60
6194;BME280;3130;41.564;23.280;2023-08-20T08:28:07;98720.44;;;33.38;28.45
6194;BME280;3130;41.564;23.280;2023-08-20T08:30:34;98692.56;;;33.41;28.96
6194;BME280;3130;41.564;23.280;2023-08-20T08:33:01;98676.69;;;33.46;28.04
6194;BME280;3130;41.564;23.280;2023-08-20T08:35:29;98717.00;;;33.71;27.62
6194;BME280;3130;41.564;23.280;2023-08-20T08:37:56;98724.00;;;33.93;27.15
6194;BME280;3130;41.564;23.280;2023-08-20T08:40:28;98625.66;;;33.49;26.38
6194;BME280;3130;41.564;23.280;2023-08-20T08:42:55;98694.28;;;34.01;25.35
6194;BME280;3130;41.564;23.280;2023-08-20T08:45:23;98713.88;;;34.11;25.33
6194;BME280;3130;41.564;23.280;2023-08-20T08:47:50;98698.41;;;34.08;25.76
6194;BME280;3130;41.564;23.280;2023-08-20T08:50:21;98726.31;;;34.44;25.91
6194;BME280;3130;41.564;23.280;2023-08-20T08:52:50;98706.09;;;34.69;25.75
6194;BME280;3130;41.564;23.280;2023-08-20T08:55:18;98629.63;;;34.48;25.16
6194;BME280;3130;41.564;23.280;2023-08-20T08:57:47;98616.38;;;34.53;24.99
6194;BME280;3130;41.564;23.280;2023-08-20T09:00:15;98704.78;;;34.98;24.59
6194;BME280;3130;41.564;23.280;2023-08-20T09:02:42;98707.72;;;34.97;25.03
6194;BME280;3130;41.564;23.280;2023-08-20T09:05:09;98705.13;;;35.02;25.27
6194;BME280;3130;41.564;23.280;2023-08-20T09:07:42;98685.97;;;34.78;24.96
6194;BME280;3130;41.564;23.280;2023-08-20T09:10:09;98702.03;;;34.88;25.00
6194;BME280;3130;41.564;23.280;2023-08-20T09:12:36;98706.13;;;34.96;25.10
6194;BME280;3130;41.564;23.280;2023-08-20T09:15:10;98700.94;;;34.84;25.09
6194;BME280;3130;41.564;23.280;2023-08-20T09:17:37;98691.53;;;34.77;25.53
6194;BME280;3130;41.564;23.280;2023-08-20T09:20:05;98670.31;;;34.87;25.47
6194;BME280;3130;41.564;23.280;2023-08-20T09:22:32;98683.28;;;35.05;24.91
6194;BME280;3130;41.564;23.280;2023-08-20T09:25:01;98673.00;;;34.92;25.35
6194;BME280;3130;41.564;23.280;2023-08-20T09:27:28;98686.28;;;35.08;25.18
6194;BME280;3130;41.564;23.280;2023-08-20T09:29:56;98623.78;;;34.73;24.79
6194;BME280;3130;41.564;23.280;2023-08-20T09:32:26;98676.06;;;35.05;24.78
6194;BME280;3130;41.564;23.280;2023-08-20T09:34:55;98659.53;;;34.77;25.13
6194;BME280;3130;41.564;23.280;2023-08-20T09:37:23;98630.53;;;34.59;24.97
6194;BME280;3130;41.564;23.280;2023-08-20T09:39:52;98676.50;;;34.92;25.30
6194;BME280;3130;41.564;23.280;2023-08-20T09:42:19;98661.25;;;34.88;25.12
6194;BME280;3130;41.564;23.280;2023-08-20T09:44:46;98629.97;;;34.78;25.66
6194;BME280;3130;41.564;23.280;2023-08-20T09:47:15;98674.41;;;34.99;25.65
6194;BME280;3130;41.564;23.280;2023-08-20T09:49:45;98673.84;;;34.97;25.69
6194;BME280;3130;41.564;23.280;2023-08-20T09:52:17;98674.19;;;35.01;24.63
6194;BME280;3130;41.564;23.280;2023-08-20T09:55:00;98673.84;;;35.18;24.42
6194;BME280;3130;41.564;23.280;2023-08-20T09:57:32;98554.44;;;34.41;24.02
6194;BME280;3130;41.564;23.280;2023-08-20T10:00:00;98667.28;;;35.05;24.76
6194;BME280;3130;41.564;23.280;2023-08-20T10:02:28;98659.22;;;35.26;24.95
6194;BME280;3130;41.564;23.280;2023-08-20T10:04:57;98671.06;;;35.40;24.85
6194;BME280;3130;41.564;23.280;2023-08-20T10:07:28;98656.34;;;35.32;24.96
6194;BME280;3130;41.564;23.280;2023-08-20T10:09:57;98663.06;;;35.40;24.91
6194;BME280;3130;41.564;23.280;2023-08-20T10:12:26;98664.63;;;35.36;24.22
6194;BME280;3130;41.564;23.280;2023-08-20T10:14:53;98644.66;;;35.43;23.94
6194;BME280;3130;41.564;23.280;2023-08-20T10:17:22;98664.28;;;35.59;23.21
6194;BME280;3130;41.564;23.280;2023-08-20T10:19:50;98664.84;;;35.61;22.81
6194;BME280;3130;41.564;23.280;2023-08-20T10:22:19;98642.94;;;35.59;22.23
6194;BME280;3130;41.564;23.280;2023-08-20T10:24:51;98641.09;;;35.64;21.83
6194;BME280;3130;41.564;23.280;2023-08-20T10:27:25;98647.56;;;35.73;22.70
6194;BME280;3130;41.564;23.280;2023-08-20T10:29:53;98649.72;;;35.81;21.97
6194;BME280;3130;41.564;23.280;2023-08-20T10:32:21;98648.16;;;35.85;22.22
6194;BME280;3130;41.564;23.280;2023-08-20T10:35:07;98652.16;;;35.88;22.52
6194;BME280;3130;41.564;23.280;2023-08-20T10:37:36;98649.38;;;36.09;21.86
6194;BME280;3130;41.564;23.280;2023-08-20T10:40:06;98628.50;;;36.01;21.73
6194;BME280;3130;41.564;23.280;2023-08-20T10:42:40;98641.66;;;36.22;21.48
6194;BME280;3130;41.564;23.280;2023-08-20T10:45:08;98641.47;;;36.39;22.10
6194;BME280;3130;41.564;23.280;2023-08-20T10:47:37;98627.28;;;36.33;23.33
6194;BME280;3130;41.564;23.280;2023-08-20T10:50:05;98595.16;;;35.62;23.68
6194;BME280;3130;41.564;23.280;2023-08-20T10:52:40;98626.47;;;36.23;23.90
6194;BME280;3130;41.564;23.280;2023-08-20T10:55:07;98635.28;;;36.28;22.92
6194;BME280;3130;41.564;23.280;2023-08-20T10:57:35;98629.75;;;36.45;22.87
6194;BME280;3130;41.564;23.280;2023-08-20T11:00:04;98526.09;;;35.76;22.61
6194;BME280;3130;41.564;23.280;2023-08-20T11:02:37;98624.91;;;36.37;23.02
6194;BME280;3130;41.564;23.280;2023-08-20T11:05:16;98608.59;;;36.33;23.01
6194;BME280;3130;41.564;23.280;2023-08-20T11:07:46;98598.16;;;36.27;23.21
6194;BME280;3130;41.564;23.280;2023-08-20T11:10:15;98620.88;;;36.39;23.72
6194;BME280;3130;41.564;23.280;2023-08-20T11:12:42;98605.38;;;36.41;23.69
6194;BME280;3130;41.564;23.280;2023-08-20T11:15:10;98608.84;;;36.32;23.12
6194;BME280;3130;41.564;23.280;2023-08-20T11:17:41;98589.06;;;36.28;22.73
6194;BME280;3130;41.564;23.280;2023-08-20T11:20:09;98597.38;;;36.41;22.62
6194;BME280;3130;41.564;23.280;2023-08-20T11:22:54;98473.50;;;35.76;23.17
6194;BME280;3130;41.564;23.280;2023-08-20T11:25:21;98580.06;;;36.74;22.99
6194;BME280;3130;41.564;23.280;2023-08-20T11:27:50;98590.28;;;36.92;22.16
6194;BME280;3130;41.564;23.280;2023-08-20T11:30:17;98580.06;;;36.84;22.52
6194;BME280;3130;41.564;23.280;2023-08-20T11:32:44;98584.63;;;36.88;21.57
6194;BME280;3130;41.564;23.280;2023-08-20T11:35:12;98482.69;;;36.30;22.06
6194;BME280;3130;41.564;23.280;2023-08-20T11:37:40;98569.38;;;36.89;22.06
6194;BME280;3130;41.564;23.280;2023-08-20T11:40:09;98580.34;;;36.87;22.10
6194;BME280;3130;41.564;23.280;2023-08-20T11:42:36;98561.88;;;36.91;21.70
6194;BME280;3130;41.564;23.280;2023-08-20T11:45:05;98515.09;;;36.58;21.48
6194;BME280;3130;41.564;23.280;2023-08-20T11:47:38;98563.22;;;36.58;21.71
6194;BME280;3130;41.564;23.280;2023-08-20T11:50:06;98557.59;;;36.70;21.79
6194;BME280;3130;41.564;23.280;2023-08-20T11:52:34;98553.88;;;36.81;21.29
6194;BME280;3130;41.564;23.280;2023-08-20T11:55:02;98556.28;;;36.82;21.43
6194;BME280;3130;41.564;23.280;2023-08-20T11:57:31;98520.97;;;36.75;21.42
6194;BME280;3130;41.564;23.280;2023-08-20T12:00:00;98540.50;;;37.06;21.24
6194;BME280;3130;41.564;23.280;2023-08-20T12:02:30;98535.66;;;37.28;21.27
6194;BME280;3130;41.564;23.280;2023-08-20T12:04:57;98532.44;;;37.40;20.96
6194;BME280;3130;41.564;23.280;2023-08-20T12:07:25;98531.91;;;37.38;20.83
6194;BME280;3130;41.564;23.280;2023-08-20T12:09:53;98438.31;;;36.84;20.65
6194;BME280;3130;41.564;23.280;2023-08-20T12:12:20;98533.44;;;37.54;20.63
6194;BME280;3130;41.564;23.280;2023-08-20T12:14:49;98470.66;;;37.17;20.39
6194;BME280;3130;41.564;23.280;2023-08-20T12:17:17;98526.22;;;37.55;20.25
6194;BME280;3130;41.564;23.280;2023-08-20T12:19:45;98478.63;;;37.32;20.30
6194;BME280;3130;41.564;23.280;2023-08-20T12:22:12;98520.50;;;37.76;20.87
6194;BME280;3130;41.564;23.280;2023-08-20T12:24:39;98510.31;;;37.78;19.98
6194;BME280;3130;41.564;23.280;2023-08-20T12:27:06;98497.03;;;37.53;20.45
6194;BME280;3130;41.564;23.280;2023-08-20T12:29:33;98524.34;;;37.60;20.21
6194;BME280;3130;41.564;23.280;2023-08-20T12:32:02;98519.56;;;37.47;19.63
6194;BME280;3130;41.564;23.280;2023-08-20T12:34:32;98513.06;;;37.63;19.59
6194;BME280;3130;41.564;23.280;2023-08-20T12:37:00;98513.59;;;37.65;20.04
6194;BME280;3130;41.564;23.280;2023-08-20T12:39:27;98510.63;;;37.72;20.16
6194;BME280;3130;41.564;23.280;2023-08-20T12:41:54;98507.13;;;37.86;20.15
6194;BME280;3130;41.564;23.280;2023-08-20T12:44:21;98507.66;;;37.83;20.68
6194;BME280;3130;41.564;23.280;2023-08-20T12:46:49;98503.38;;;37.82;23.52
6194;BME280;3130;41.564;23.280;2023-08-20T12:49:18;98479.66;;;37.51;22.78
6194;BME280;3130;41.564;23.280;2023-08-20T12:51:45;98504.50;;;37.61;21.25
6194;BME280;3130;41.564;23.280;2023-08-20T12:54:12;98487.44;;;37.47;20.98
6194;BME280;3130;41.564;23.280;2023-08-20T12:56:39;98412.13;;;36.86;21.45
6194;BME280;3130;41.564;23.280;2023-08-20T12:59:06;98474.94;;;37.18;21.42
6194;BME280;3130;41.564;23.280;2023-08-20T13:01:33;98495.78;;;37.41;20.58
6194;BME280;3130;41.564;23.280;2023-08-20T13:04:01;98494.44;;;37.33;20.56
6194;BME280;3130;41.564;23.280;2023-08-20T13:06:30;98474.69;;;37.15;19.99
6194;BME280;3130;41.564;23.280;2023-08-20T13:08:58;98450.91;;;36.98;20.52
6194;BME280;3130;41.564;23.280;2023-08-20T13:11:25;98457.31;;;37.07;19.88
6194;BME280;3130;41.564;23.280;2023-08-20T13:13:57;98488.31;;;37.23;21.08
6194;BME280;3130;41.564;23.280;2023-08-20T13:16:24;98423.94;;;36.50;21.44